createdAt,value
2022-09-07T00:00:58.202Z,16.66
2022-09-07T00:03:25.882Z,16.69
2022-09-07T00:05:53.414Z,16.60
2022-09-07T00:08:22.633Z,16.59
2022-09-07T00:10:55.241Z,16.59
2022-09-07T00:13:23.725Z,16.61
2022-09-07T00:15:51.230Z,16.58
2022-09-07T00:18:20.385Z,16.62
2022-09-07T00:20:57.182Z,16.59
2022-09-07T00:23:24.653Z,16.57
2022-09-07T00:25:54.072Z,16.62
2022-09-07T00:28:21.601Z,16.59
2022-09-07T00:30:49.008Z,16.56
2022-09-07T00:33:16.451Z,16.52
2022-09-07T00:35:45.231Z,16.56
2022-09-07T00:38:12.644Z,16.55
2022-09-07T00:40:40.110Z,16.56
2022-09-07T00:43:07.913Z,16.59
2022-09-07T00:45:35.413Z,16.58
2022-09-07T00:48:06.556Z,16.59
2022-09-07T00:50:41.694Z,16.62
2022-09-07T00:53:13.752Z,16.60
2022-09-07T00:55:44.345Z,16.54
2022-09-07T00:58:12.971Z,16.57
2022-09-07T01:00:41.789Z,16.56
2022-09-07T01:03:11.499Z,16.59
2022-09-07T01:05:43.537Z,16.62
2022-09-07T01:08:14.020Z,16.60
2022-09-07T01:10:41.355Z,16.61
2022-09-07T01:13:08.796Z,16.67
2022-09-07T01:15:47.404Z,16.62
2022-09-07T01:18:26.081Z,16.60
2022-09-07T01:21:18.742Z,16.59
2022-09-07T01:24:25.939Z,16.57
2022-09-07T01:27:11.401Z,16.59
2022-09-07T01:29:52.142Z,16.55
2022-09-07T01:32:28.837Z,16.53
2022-09-07T01:34:56.873Z,16.45
2022-09-07T01:37:30.550Z,16.46
2022-09-07T01:40:06.835Z,16.49
2022-09-07T01:42:41.507Z,16.51
2022-09-07T01:45:13.665Z,16.52
2022-09-07T01:47:45.962Z,16.49
2022-09-07T01:50:18.838Z,16.45
2022-09-07T01:52:50.845Z,16.48
2022-09-07T01:55:24.431Z,16.46
2022-09-07T01:57:58.229Z,16.41
2022-09-07T02:00:27.272Z,16.42
2022-09-07T02:03:02.805Z,16.40
2022-09-07T02:05:36.096Z,16.45
2022-09-07T02:08:09.064Z,16.40
2022-09-07T02:10:40.415Z,16.41
2022-09-07T02:13:13.247Z,16.44
2022-09-07T02:15:48.792Z,16.39
2022-09-07T02:18:16.239Z,16.50
2022-09-07T02:20:47.051Z,16.48
2022-09-07T02:23:19.143Z,16.45
2022-09-07T02:25:48.516Z,16.50
2022-09-07T02:28:21.322Z,16.56
2022-09-07T02:30:50.325Z,16.51
2022-09-07T02:33:18.030Z,16.55
2022-09-07T02:35:45.760Z,16.53
2022-09-07T02:38:13.440Z,16.54
2022-09-07T02:40:40.816Z,16.55
2022-09-07T02:43:10.603Z,16.54
2022-09-07T02:45:56.731Z,16.64
2022-09-07T02:48:32.977Z,16.62
2022-09-07T02:51:09.894Z,16.60
2022-09-07T02:53:51.759Z,16.59
2022-09-07T02:56:31.690Z,16.60
2022-09-07T02:59:06.721Z,16.65
2022-09-07T03:01:40.461Z,16.53
2022-09-07T03:04:14.139Z,16.64
2022-09-07T03:06:46.025Z,16.67
2022-09-07T03:09:17.906Z,16.81
2022-09-07T03:11:45.565Z,16.95
2022-09-07T03:14:14.921Z,17.01
2022-09-07T03:16:43.089Z,16.94
2022-09-07T03:19:11.780Z,16.84
2022-09-07T03:21:39.240Z,16.77
2022-09-07T03:24:06.905Z,16.68
2022-09-07T03:26:36.466Z,16.61
2022-09-07T03:29:03.854Z,16.53
2022-09-07T03:31:32.640Z,16.31
2022-09-07T03:33:59.967Z,16.14
2022-09-07T03:36:30.227Z,16.08
2022-09-07T03:38:57.927Z,16.11
2022-09-07T03:41:26.093Z,16.17
2022-09-07T03:43:53.885Z,16.21
2022-09-07T03:46:21.792Z,16.24
2022-09-07T03:48:49.754Z,16.25
2022-09-07T03:51:19.657Z,16.23
2022-09-07T03:53:48.749Z,16.20
2022-09-07T03:56:17.932Z,16.17
2022-09-07T03:58:46.355Z,16.25
2022-09-07T04:01:16.280Z,16.18
2022-09-07T04:03:45.151Z,16.30
2022-09-07T04:06:12.820Z,16.29
2022-09-07T04:08:41.931Z,16.23
2022-09-07T04:11:13.659Z,16.18
2022-09-07T04:13:42.051Z,16.15
2022-09-07T04:16:11.075Z,16.13
2022-09-07T04:18:38.636Z,16.21
2022-09-07T04:21:06.180Z,16.18
2022-09-07T04:23:34.189Z,16.17
2022-09-07T04:26:01.619Z,16.22
2022-09-07T04:28:30.441Z,16.19
2022-09-07T04:31:00.416Z,16.08
2022-09-07T04:33:27.993Z,16.12
2022-09-07T04:35:55.360Z,16.03
2022-09-07T04:38:22.694Z,16.08
2022-09-07T04:40:50.107Z,16.07
2022-09-07T04:43:17.436Z,16.04
2022-09-07T04:45:46.443Z,16.00
2022-09-07T04:48:13.853Z,15.90
2022-09-07T04:50:41.189Z,15.92
2022-09-07T04:53:08.479Z,15.93
2022-09-07T04:55:35.845Z,15.98
2022-09-07T04:58:03.813Z,15.97
2022-09-07T05:00:31.103Z,16.00
2022-09-07T05:02:59.890Z,15.99
2022-09-07T05:05:27.310Z,16.00
2022-09-07T05:07:54.682Z,15.98
2022-09-07T05:10:22.061Z,16.01
2022-09-07T05:12:49.410Z,16.03
2022-09-07T05:15:16.948Z,16.05
2022-09-07T05:17:44.402Z,16.06
2022-09-07T05:20:16.287Z,16.10
2022-09-07T05:22:46.033Z,16.12
2022-09-07T05:25:13.611Z,16.12
2022-09-07T05:27:41.053Z,16.10
2022-09-07T05:32:57.177Z,16.12
2022-09-07T05:35:25.938Z,16.08
2022-09-07T05:37:53.294Z,16.19
2022-09-07T05:40:20.693Z,16.22
2022-09-07T05:42:48.484Z,16.18
2022-09-07T05:45:16.043Z,16.14
2022-09-07T05:47:43.364Z,16.11
2022-09-07T05:50:10.754Z,16.09
2022-09-07T05:52:39.556Z,16.10
2022-09-07T05:55:28.648Z,16.08
2022-09-07T05:57:54.948Z,16.14
2022-09-07T06:00:22.395Z,16.22
2022-09-07T06:02:49.830Z,16.17
2022-09-07T06:05:17.309Z,16.12
2022-09-07T06:07:48.206Z,16.13
2022-09-07T06:13:03.239Z,16.15
2022-09-07T06:15:32.026Z,16.15
2022-09-07T06:17:59.485Z,16.16
2022-09-07T06:20:26.865Z,16.20
2022-09-07T06:22:55.688Z,16.24
2022-09-07T06:25:23.140Z,16.18
2022-09-07T06:27:50.613Z,16.15
2022-09-07T06:30:18.136Z,16.16
2022-09-07T06:32:45.930Z,16.18
2022-09-07T06:35:14.115Z,16.15
2022-09-07T06:37:41.617Z,16.24
2022-09-07T06:40:11.613Z,16.17
2022-09-07T06:42:39.166Z,16.20
2022-09-07T06:45:07.173Z,16.18
2022-09-07T06:47:34.594Z,16.23
2022-09-07T06:50:01.906Z,16.19
2022-09-07T06:52:29.393Z,16.20
2022-09-07T06:57:26.838Z,16.28
2022-09-07T06:59:54.370Z,16.34
2022-09-07T07:02:22.001Z,16.37
2022-09-07T07:04:49.793Z,16.44
2022-09-07T07:07:17.150Z,16.45
2022-09-07T07:09:44.480Z,16.50
2022-09-07T07:12:11.862Z,16.68
2022-09-07T07:14:44.645Z,16.82
2022-09-07T07:17:12.456Z,16.79
2022-09-07T07:19:39.785Z,16.74
2022-09-07T07:22:29.139Z,16.96
2022-09-07T07:24:54.615Z,16.91
2022-09-07T07:27:21.893Z,17.06
2022-09-07T07:29:50.683Z,17.27
2022-09-07T07:32:18.049Z,17.43
2022-09-07T07:34:45.406Z,17.46
2022-09-07T07:37:12.752Z,17.75
2022-09-07T07:42:27.427Z,18.06
2022-09-07T07:47:43.528Z,18.29
2022-09-07T07:55:45.625Z,18.51
2022-09-07T07:58:13.090Z,18.44
2022-09-07T08:00:54.442Z,18.65
2022-09-07T08:03:23.522Z,19.05
2022-09-07T08:05:51.445Z,19.67
2022-09-07T08:08:19.742Z,19.52
2022-09-07T08:10:47.254Z,20.03
2022-09-07T08:13:15.114Z,19.66
2022-09-07T08:15:43.864Z,19.88
2022-09-07T08:18:11.689Z,20.07
2022-09-07T08:20:39.442Z,20.16
2022-09-07T08:23:07.305Z,20.04
2022-09-07T08:25:35.123Z,20.25
2022-09-07T08:28:03.184Z,20.35
2022-09-07T08:30:30.495Z,20.11
2022-09-07T08:32:59.206Z,20.59
2022-09-07T08:35:26.579Z,20.17
2022-09-07T08:37:54.168Z,20.41
2022-09-07T08:40:21.456Z,20.69
2022-09-07T08:43:01.366Z,20.60
2022-09-07T08:45:32.030Z,20.41
2022-09-07T08:48:01.013Z,20.61
2022-09-07T08:50:34.682Z,20.81
2022-09-07T08:53:08.496Z,20.86
2022-09-07T08:55:45.343Z,21.00
2022-09-07T08:58:32.609Z,21.23
2022-09-07T09:04:16.983Z,21.39
2022-09-07T09:06:55.147Z,21.91
2022-09-07T09:09:30.870Z,21.83
2022-09-07T09:12:13.122Z,21.93
2022-09-07T09:14:57.892Z,21.82
2022-09-07T09:17:32.685Z,22.24
2022-09-07T09:20:12.894Z,22.44
2022-09-07T09:22:40.467Z,22.53
2022-09-07T09:25:17.863Z,22.84
2022-09-07T09:27:45.454Z,22.83
2022-09-07T09:30:14.954Z,22.75
2022-09-07T09:32:43.835Z,23.23
2022-09-07T09:35:20.247Z,23.36
2022-09-07T09:37:47.509Z,23.46
2022-09-07T09:40:23.879Z,22.98
2022-09-07T09:43:02.632Z,23.28
2022-09-07T09:46:12.227Z,22.85
2022-09-07T09:48:31.033Z,23.64
2022-09-07T09:53:59.430Z,24.13
2022-09-07T09:56:39.594Z,24.69
2022-09-07T10:05:30.333Z,26.72
2022-09-07T10:07:59.109Z,26.07
2022-09-07T10:10:28.229Z,25.58
2022-09-07T10:12:56.953Z,25.79
2022-09-07T10:15:31.123Z,26.51
2022-09-07T10:17:58.884Z,25.80
2022-09-07T10:20:33.076Z,25.93
2022-09-07T10:23:02.777Z,25.81
2022-09-07T10:25:31.978Z,26.80
2022-09-07T10:28:13.558Z,27.01
2022-09-07T10:30:52.973Z,26.41
2022-09-07T10:33:26.683Z,25.96
2022-09-07T10:36:03.025Z,26.23
2022-09-07T10:38:39.316Z,26.17
2022-09-07T10:41:09.687Z,25.91
2022-09-07T10:43:42.540Z,25.67
2022-09-07T10:49:18.812Z,25.78
2022-09-07T10:52:03.274Z,25.72
2022-09-07T10:54:40.585Z,26.00
2022-09-07T10:57:26.239Z,25.83
2022-09-07T11:00:10.749Z,25.85
2022-09-07T11:03:28.137Z,26.02
2022-09-07T11:06:10.744Z,25.28
2022-09-07T11:12:01.581Z,27.95
2022-09-07T11:14:34.673Z,27.88
2022-09-07T11:17:05.982Z,28.35
2022-09-07T11:19:40.081Z,29.19
2022-09-07T11:22:18.979Z,29.67
2022-09-07T11:25:29.001Z,30.78
2022-09-07T11:27:44.013Z,28.41
2022-09-07T11:30:21.167Z,27.47
2022-09-07T11:33:00.569Z,27.54
2022-09-07T11:35:34.434Z,27.13
2022-09-07T11:38:11.465Z,28.14
2022-09-07T11:40:44.535Z,28.74
2022-09-07T11:43:20.771Z,28.31
2022-09-07T11:45:52.455Z,28.69
2022-09-07T11:48:30.278Z,28.22
2022-09-07T11:51:00.891Z,27.47
2022-09-07T11:53:32.892Z,26.43
2022-09-07T11:56:05.418Z,26.22
2022-09-07T11:58:52.620Z,25.90
2022-09-07T12:01:32.214Z,25.86
2022-09-07T12:04:20.177Z,26.08
2022-09-07T12:07:20.259Z,25.65
2022-09-07T12:10:00.553Z,25.22
2022-09-07T12:12:53.545Z,25.79
2022-09-07T12:15:32.580Z,26.06
2022-09-07T12:18:13.126Z,26.18
2022-09-07T12:20:42.308Z,26.12
2022-09-07T12:23:22.307Z,26.01
2022-09-07T12:25:51.592Z,25.86
2022-09-07T12:29:04.264Z,25.76
2022-09-07T12:31:57.696Z,25.82
2022-09-07T12:34:49.387Z,26.33
2022-09-07T12:37:43.308Z,26.17
2022-09-07T12:40:45.745Z,26.23
2022-09-07T12:43:44.653Z,26.37
2022-09-07T12:46:20.199Z,26.23
2022-09-07T12:49:00.323Z,26.24
2022-09-07T12:54:28.892Z,25.48
2022-09-07T13:00:01.027Z,25.19
2022-09-07T13:02:59.665Z,25.01
2022-09-07T13:05:44.628Z,25.21
2022-09-07T13:08:40.937Z,25.23
2022-09-07T13:11:26.517Z,25.42
2022-09-07T13:14:05.188Z,25.09
2022-09-07T13:17:15.984Z,25.19
2022-09-07T13:19:56.742Z,25.08
2022-09-07T13:22:59.924Z,25.14
2022-09-07T13:25:47.624Z,25.37
2022-09-07T13:28:36.361Z,25.30
2022-09-07T13:31:22.799Z,25.16
2022-09-07T13:33:51.258Z,24.83
2022-09-07T13:36:38.221Z,24.71
2022-09-07T13:39:12.339Z,24.77
2022-09-07T13:41:48.094Z,24.72
2022-09-07T13:44:25.049Z,24.55
2022-09-07T13:47:20.210Z,24.27
2022-09-07T13:50:00.505Z,24.41
2022-09-07T13:52:40.188Z,24.29
2022-09-07T13:55:25.134Z,23.97
2022-09-07T13:58:13.412Z,23.32
2022-09-07T14:00:54.557Z,23.27
2022-09-07T14:03:23.895Z,23.32
2022-09-07T14:06:15.586Z,23.31
2022-09-07T14:08:47.711Z,23.24
2022-09-07T14:11:17.830Z,23.18
2022-09-07T14:13:46.622Z,23.05
2022-09-07T14:16:15.155Z,23.30
2022-09-07T14:18:42.466Z,23.44
2022-09-07T14:21:19.047Z,23.70
2022-09-07T14:23:50.193Z,23.90
2022-09-07T14:26:19.750Z,23.91
2022-09-07T14:28:51.186Z,24.39
2022-09-07T14:31:20.392Z,24.34
2022-09-07T14:33:51.215Z,24.42
2022-09-07T14:36:43.593Z,24.34
2022-09-07T14:39:11.599Z,24.45
2022-09-07T14:41:39.819Z,24.06
2022-09-07T14:44:27.440Z,23.91
2022-09-07T14:46:57.104Z,23.95
2022-09-07T14:49:24.877Z,24.24
2022-09-07T14:51:53.424Z,24.41
2022-09-07T14:54:22.892Z,24.39
2022-09-07T14:57:02.329Z,24.90
2022-09-07T14:59:40.209Z,25.11
2022-09-07T15:02:25.451Z,25.25
2022-09-07T15:05:21.916Z,25.12
2022-09-07T15:07:50.900Z,25.36
2022-09-07T15:10:42.393Z,25.91
2022-09-07T15:13:27.075Z,26.23
2022-09-07T15:16:01.139Z,26.81
2022-09-07T15:18:52.369Z,27.01
2022-09-07T15:21:20.436Z,26.90
2022-09-07T15:23:52.122Z,26.53
2022-09-07T15:29:10.881Z,28.30
2022-09-07T15:31:43.393Z,27.97
2022-09-07T15:34:15.768Z,28.99
2022-09-07T15:36:46.226Z,28.37
2022-09-07T15:39:17.064Z,27.61
2022-09-07T15:41:44.595Z,27.63
2022-09-07T15:44:13.726Z,27.08
2022-09-07T15:46:42.847Z,26.52
2022-09-07T15:49:12.347Z,26.17
2022-09-07T15:54:27.376Z,25.41
2022-09-07T15:59:41.929Z,26.04
2022-09-07T16:04:57.936Z,25.88
2022-09-07T16:08:24.789Z,25.87
2022-09-07T16:10:12.604Z,26.94
2022-09-07T16:15:27.463Z,28.82
2022-09-07T16:17:56.232Z,27.44
2022-09-07T16:20:23.532Z,27.17
2022-09-07T16:25:38.480Z,28.40
2022-09-07T16:28:05.975Z,27.62
2022-09-07T16:30:33.617Z,27.91
2022-09-07T16:33:02.287Z,27.10
2022-09-07T16:35:29.581Z,26.05
2022-09-07T16:41:20.299Z,25.10
2022-09-07T16:43:48.787Z,24.78
2022-09-07T16:46:17.401Z,24.26
2022-09-07T16:48:46.088Z,24.26
2022-09-07T16:51:16.181Z,24.22
2022-09-07T16:53:43.535Z,24.39
2022-09-07T16:56:12.823Z,24.28
2022-09-07T16:58:41.730Z,24.27
2022-09-07T17:01:12.039Z,24.17
2022-09-07T17:03:40.373Z,24.09
2022-09-07T17:06:11.393Z,23.98
2022-09-07T17:08:40.383Z,23.95
2022-09-07T17:11:09.365Z,23.80
2022-09-07T17:13:38.367Z,23.83
2022-09-07T17:16:08.460Z,23.68
2022-09-07T17:21:28.855Z,23.53
2022-09-07T17:23:56.220Z,23.46
2022-09-07T17:26:26.617Z,23.23
2022-09-07T17:28:56.603Z,23.04
2022-09-07T17:34:19.078Z,22.82
2022-09-07T17:36:48.194Z,22.74
2022-09-07T17:39:17.997Z,22.68
2022-09-07T17:41:47.091Z,22.63
2022-09-07T17:44:14.809Z,22.62
2022-09-07T17:46:42.180Z,22.58
2022-09-07T17:49:10.132Z,22.61
2022-09-07T17:51:38.050Z,22.62
2022-09-07T17:54:11.390Z,22.56
2022-09-07T17:56:39.825Z,22.45
2022-09-07T18:01:55.962Z,22.28
2022-09-07T18:04:23.732Z,22.23
2022-09-07T18:06:51.322Z,22.16
2022-09-07T18:09:20.160Z,22.12
2022-09-07T18:11:49.011Z,22.11
2022-09-07T18:14:17.346Z,22.08
2022-09-07T18:16:46.524Z,22.09
2022-09-07T18:19:14.327Z,22.09
2022-09-07T18:21:43.489Z,22.06
2022-09-07T18:24:14.009Z,22.06
2022-09-07T18:26:43.308Z,22.07
2022-09-07T18:29:27.321Z,21.97
2022-09-07T18:31:55.572Z,21.84
2022-09-07T18:34:23.290Z,21.72
2022-09-07T18:36:50.717Z,21.59
2022-09-07T18:39:18.216Z,21.50
2022-09-07T18:41:46.781Z,21.38
2022-09-07T18:47:01.411Z,21.36
2022-09-07T18:49:28.880Z,21.36
2022-09-07T18:54:43.296Z,21.36
2022-09-07T18:57:12.208Z,21.35
2022-09-07T18:59:39.535Z,21.28
2022-09-07T19:02:09.379Z,21.28
2022-09-07T19:07:29.007Z,21.11
2022-09-07T19:09:57.362Z,21.08
2022-09-07T19:12:25.980Z,20.95
2022-09-07T19:14:53.257Z,20.96
2022-09-07T19:17:20.448Z,20.85
2022-09-07T19:19:47.781Z,20.91
2022-09-07T19:22:15.040Z,20.85
2022-09-07T19:24:42.263Z,20.82
2022-09-07T19:27:09.656Z,20.79
2022-09-07T19:29:38.283Z,20.86
2022-09-07T19:32:05.641Z,20.83
2022-09-07T19:34:33.540Z,20.79
2022-09-07T19:37:00.926Z,20.77
2022-09-07T19:39:28.682Z,20.80
2022-09-07T19:41:56.008Z,20.73
2022-09-07T19:44:23.491Z,20.81
2022-09-07T19:46:52.142Z,20.84
2022-09-07T19:49:19.753Z,20.81
2022-09-07T19:51:47.427Z,20.88
2022-09-07T19:54:14.677Z,20.85
2022-09-07T19:56:42.713Z,20.79
2022-09-07T19:59:10.343Z,20.80
2022-09-07T20:01:38.225Z,20.78
2022-09-07T20:04:08.251Z,20.75
2022-09-07T20:06:37.783Z,20.73
2022-09-07T20:09:05.615Z,20.64
2022-09-07T20:11:33.497Z,20.63
2022-09-07T20:14:03.640Z,20.56
2022-09-07T20:16:31.365Z,20.49
2022-09-07T20:18:58.816Z,20.47
2022-09-07T20:21:27.558Z,20.46
2022-09-07T20:23:57.797Z,20.40
2022-09-07T20:26:25.083Z,20.37
2022-09-07T20:29:11.054Z,20.38
2022-09-07T20:31:43.490Z,20.36
2022-09-07T20:34:11.314Z,20.29
2022-09-07T20:36:40.088Z,20.25
2022-09-07T20:39:07.490Z,20.17
2022-09-07T20:41:35.010Z,20.16
2022-09-07T20:44:03.967Z,20.09
2022-09-07T20:46:32.431Z,20.09
2022-09-07T20:49:00.029Z,20.05
2022-09-07T20:51:27.856Z,20.00
2022-09-07T20:53:56.547Z,19.99
2022-09-07T20:56:25.526Z,19.93
2022-09-07T20:58:54.896Z,19.81
2022-09-07T21:01:23.062Z,19.73
2022-09-07T21:03:52.319Z,19.65
2022-09-07T21:06:20.847Z,19.66
2022-09-07T21:08:49.187Z,19.54
2022-09-07T21:11:19.933Z,19.55
2022-09-07T21:13:48.040Z,19.49
2022-09-07T21:16:16.473Z,19.35
2022-09-07T21:18:44.384Z,19.25
2022-09-07T21:21:20.393Z,19.27
2022-09-07T21:23:48.400Z,19.35
2022-09-07T21:26:20.213Z,19.26
2022-09-07T21:28:47.452Z,19.22
2022-09-07T21:31:14.850Z,19.19
2022-09-07T21:33:42.107Z,19.13
2022-09-07T21:36:11.424Z,19.18
2022-09-07T21:38:40.645Z,19.12
2022-09-07T21:41:08.476Z,19.04
2022-09-07T21:43:37.329Z,19.03
2022-09-07T21:46:08.053Z,19.04
2022-09-07T21:48:36.059Z,19.02
2022-09-07T21:51:03.587Z,18.96
2022-09-07T21:53:31.110Z,18.93
2022-09-07T21:56:00.856Z,18.79
2022-09-07T21:58:29.412Z,18.77
2022-09-07T22:00:58.640Z,18.71
2022-09-07T22:03:26.183Z,18.67
2022-09-07T22:05:53.384Z,18.62
2022-09-07T22:08:20.836Z,18.53
2022-09-07T22:10:48.065Z,18.50
2022-09-07T22:13:15.280Z,18.47
2022-09-07T22:15:42.642Z,18.38
2022-09-07T22:18:12.398Z,18.37
2022-09-07T22:20:39.681Z,18.35
2022-09-07T22:23:07.114Z,18.24
2022-09-07T22:25:34.291Z,18.20
2022-09-07T22:28:01.691Z,18.15
2022-09-07T22:30:29.089Z,18.14
2022-09-07T22:32:56.375Z,18.14
2022-09-07T22:35:24.956Z,18.17
2022-09-07T22:37:52.154Z,18.14
2022-09-07T22:40:19.741Z,18.02
2022-09-07T22:42:46.928Z,17.87
2022-09-07T22:45:14.228Z,17.75
2022-09-07T22:47:41.900Z,17.68
2022-09-07T22:50:09.969Z,17.75
2022-09-07T22:52:38.539Z,17.72
2022-09-07T22:55:06.487Z,17.77
2022-09-07T22:57:33.731Z,17.84
2022-09-07T23:00:00.986Z,17.68
2022-09-07T23:02:28.241Z,17.74
2022-09-07T23:04:55.529Z,17.78
2022-09-07T23:07:22.805Z,17.74
2022-09-07T23:09:51.335Z,17.76
2022-09-07T23:12:18.563Z,17.67
2022-09-07T23:14:45.745Z,17.59
2022-09-07T23:17:12.998Z,17.63
2022-09-07T23:19:40.230Z,17.56
2022-09-07T23:22:07.525Z,17.64
2022-09-07T23:24:34.693Z,17.62
2022-09-07T23:27:03.513Z,17.55
2022-09-07T23:29:30.731Z,17.50
2022-09-07T23:31:57.953Z,17.52
2022-09-07T23:34:25.186Z,17.57
2022-09-07T23:36:52.470Z,17.47
2022-09-07T23:39:19.905Z,17.44
2022-09-07T23:41:47.103Z,17.41
2022-09-07T23:44:15.670Z,17.51
2022-09-07T23:46:43.019Z,17.51
2022-09-07T23:49:10.351Z,17.49
2022-09-07T23:51:37.543Z,17.50
2022-09-07T23:54:05.085Z,17.42
2022-09-07T23:56:32.352Z,17.37
2022-09-07T23:58:59.571Z,17.26
